sensor_id;sensor_type;location;lat;lon;timestamp;pressure;altitude;pressure_sealevel;temperature;humidity
12963;BME280;6546;49.882;8.666;2023-03-19T00:01:30;99716.66;;;12.44;56.99
12963;BME280;6546;49.882;8.666;2023-03-19T00:03:56;99720.50;;;12.48;56.59
12963;BME280;6546;49.882;8.666;2023-03-19T00:06:23;99724.88;;;12.48;56.81
12963;BME280;6546;49.882;8.666;2023-03-19T00:08:51;99728.06;;;12.43;57.25
12963;BME280;6546;49.882;8.666;2023-03-19T00:11:18;99725.00;;;12.40;57.46
12963;BME280;6546;49.882;8.666;2023-03-19T00:13:44;99729.75;;;12.36;57.54
12963;BME280;6546;49.882;8.666;2023-03-19T00:16:11;99731.09;;;12.32;57.55
12963;BME280;6546;49.882;8.666;2023-03-19T00:18:37;99725.28;;;12.30;57.30
12963;BME280;6546;49.882;8.666;2023-03-19T00:21:04;99725.47;;;12.29;57.14
12963;BME280;6546;49.882;8.666;2023-03-19T00:23:31;99718.84;;;12.26;56.60
12963;BME280;6546;49.882;8.666;2023-03-19T00:25:59;99720.09;;;12.30;55.89
12963;BME280;6546;49.882;8.666;2023-03-19T00:28:26;99723.50;;;12.31;55.48
12963;BME280;6546;49.882;8.666;2023-03-19T00:30:53;99720.91;;;12.31;54.93
12963;BME280;6546;49.882;8.666;2023-03-19T00:33:20;99719.28;;;12.30;54.98
12963;BME280;6546;49.882;8.666;2023-03-19T00:35:46;99719.47;;;12.28;54.66
12963;BME280;6546;49.882;8.666;2023-03-19T00:38:13;99717.66;;;12.29;54.98
12963;BME280;6546;49.882;8.666;2023-03-19T00:40:40;99727.06;;;12.30;54.68
12963;BME280;6546;49.882;8.666;2023-03-19T00:43:08;99720.72;;;12.32;53.55
12963;BME280;6546;49.882;8.666;2023-03-19T00:45:35;99725.91;;;12.32;53.82
12963;BME280;6546;49.882;8.666;2023-03-19T00:48:01;99725.91;;;12.32;53.63
12963;BME280;6546;49.882;8.666;2023-03-19T00:50:28;99729.47;;;12.31;53.97
12963;BME280;6546;49.882;8.666;2023-03-19T00:52:54;99732.72;;;12.33;54.77
12963;BME280;6546;49.882;8.666;2023-03-19T00:55:21;99730.13;;;12.33;54.95
12963;BME280;6546;49.882;8.666;2023-03-19T00:57:48;99731.09;;;12.32;54.32
12963;BME280;6546;49.882;8.666;2023-03-19T01:00:17;99726.63;;;12.26;55.12
12963;BME280;6546;49.882;8.666;2023-03-19T01:02:43;99730.56;;;12.22;55.65
12963;BME280;6546;49.882;8.666;2023-03-19T01:05:10;99733.16;;;12.22;56.25
12963;BME280;6546;49.882;8.666;2023-03-19T01:07:37;99740.13;;;12.22;56.98
12963;BME280;6546;49.882;8.666;2023-03-19T01:10:05;99737.00;;;12.26;56.40
12963;BME280;6546;49.882;8.666;2023-03-19T01:12:31;99731.81;;;12.26;56.22
12963;BME280;6546;49.882;8.666;2023-03-19T01:14:58;99725.38;;;12.22;56.24
12963;BME280;6546;49.882;8.666;2023-03-19T01:17:26;99734.59;;;12.25;56.33
12963;BME280;6546;49.882;8.666;2023-03-19T01:19:54;99732.56;;;12.20;56.41
12963;BME280;6546;49.882;8.666;2023-03-19T01:22:20;99728.91;;;12.15;57.05
12963;BME280;6546;49.882;8.666;2023-03-19T01:24:47;99730.84;;;12.13;56.93
12963;BME280;6546;49.882;8.666;2023-03-19T01:27:13;99725.41;;;12.07;57.07
12963;BME280;6546;49.882;8.666;2023-03-19T01:29:40;99724.75;;;12.05;57.65
12963;BME280;6546;49.882;8.666;2023-03-19T01:32:07;99731.13;;;12.03;57.72
12963;BME280;6546;49.882;8.666;2023-03-19T01:34:35;99721.09;;;12.00;58.17
12963;BME280;6546;49.882;8.666;2023-03-19T01:37:02;99726.66;;;11.97;58.28
12963;BME280;6546;49.882;8.666;2023-03-19T01:39:28;99726.66;;;11.97;58.40
12963;BME280;6546;49.882;8.666;2023-03-19T01:42:00;99727.00;;;11.94;58.42
12963;BME280;6546;49.882;8.666;2023-03-19T01:44:28;99727.00;;;11.94;58.89
12963;BME280;6546;49.882;8.666;2023-03-19T01:46:56;99728.19;;;11.91;59.42
12963;BME280;6546;49.882;8.666;2023-03-19T01:49:25;99727.72;;;11.88;59.31
12963;BME280;6546;49.882;8.666;2023-03-19T01:51:54;99736.69;;;11.85;59.63
12963;BME280;6546;49.882;8.666;2023-03-19T01:54:23;99737.81;;;11.83;59.93
12963;BME280;6546;49.882;8.666;2023-03-19T01:56:52;99730.75;;;11.77;60.28
12963;BME280;6546;49.882;8.666;2023-03-19T01:59:24;99734.34;;;11.76;59.77
12963;BME280;6546;49.882;8.666;2023-03-19T02:01:55;99732.28;;;11.71;60.11
12963;BME280;6546;49.882;8.666;2023-03-19T02:04:23;99730.16;;;11.67;59.95
12963;BME280;6546;49.882;8.666;2023-03-19T02:06:51;99722.94;;;11.62;60.43
12963;BME280;6546;49.882;8.666;2023-03-19T02:09:20;99731.34;;;11.64;60.01
12963;BME280;6546;49.882;8.666;2023-03-19T02:11:47;99729.28;;;11.59;60.37
12963;BME280;6546;49.882;8.666;2023-03-19T02:14:15;99722.84;;;11.55;60.35
12963;BME280;6546;49.882;8.666;2023-03-19T02:16:42;99723.66;;;11.56;60.20
12963;BME280;6546;49.882;8.666;2023-03-19T02:19:11;99717.81;;;11.54;60.26
12963;BME280;6546;49.882;8.666;2023-03-19T02:21:39;99707.06;;;11.42;60.58
12963;BME280;6546;49.882;8.666;2023-03-19T02:24:08;99720.75;;;11.51;60.55
12963;BME280;6546;49.882;8.666;2023-03-19T02:26:40;99724.34;;;11.50;60.58
12963;BME280;6546;49.882;8.666;2023-03-19T02:29:07;99731.47;;;11.48;60.59
12963;BME280;6546;49.882;8.666;2023-03-19T02:31:34;99729.69;;;11.48;60.90
12963;BME280;6546;49.882;8.666;2023-03-19T02:34:03;99728.09;;;11.47;61.18
12963;BME280;6546;49.882;8.666;2023-03-19T02:36:32;99730.69;;;11.47;61.28
12963;BME280;6546;49.882;8.666;2023-03-19T02:39:03;99730.22;;;11.44;61.13
12963;BME280;6546;49.882;8.666;2023-03-19T02:41:33;99729.44;;;11.43;61.38
12963;BME280;6546;49.882;8.666;2023-03-19T02:44:02;99729.59;;;11.42;61.01
12963;BME280;6546;49.882;8.666;2023-03-19T02:46:29;99733.97;;;11.41;61.33
12963;BME280;6546;49.882;8.666;2023-03-19T02:48:56;99732.53;;;11.39;61.62
12963;BME280;6546;49.882;8.666;2023-03-19T02:51:23;99736.31;;;11.36;61.53
12963;BME280;6546;49.882;8.666;2023-03-19T02:53:49;99739.69;;;11.37;61.71
12963;BME280;6546;49.882;8.666;2023-03-19T02:56:16;99743.41;;;11.34;62.04
12963;BME280;6546;49.882;8.666;2023-03-19T02:58:42;99742.81;;;11.32;61.80
12963;BME280;6546;49.882;8.666;2023-03-19T03:01:10;99731.34;;;11.27;61.88
12963;BME280;6546;49.882;8.666;2023-03-19T03:03:37;99741.28;;;11.38;61.26
12963;BME280;6546;49.882;8.666;2023-03-19T03:06:04;99735.59;;;11.42;60.82
12963;BME280;6546;49.882;8.666;2023-03-19T03:08:31;99736.22;;;11.44;60.70
12963;BME280;6546;49.882;8.666;2023-03-19T03:10:57;99741.03;;;11.47;60.15
12963;BME280;6546;49.882;8.666;2023-03-19T03:13:24;99737.84;;;11.45;60.17
12963;BME280;6546;49.882;8.666;2023-03-19T03:15:52;99740.06;;;11.48;59.98
12963;BME280;6546;49.882;8.666;2023-03-19T03:18:20;99733.72;;;11.51;59.73
12963;BME280;6546;49.882;8.666;2023-03-19T03:20:47;99735.59;;;11.57;59.29
12963;BME280;6546;49.882;8.666;2023-03-19T03:23:13;99744.03;;;11.59;58.61
12963;BME280;6546;49.882;8.666;2023-03-19T03:25:40;99744.13;;;11.66;58.28
12963;BME280;6546;49.882;8.666;2023-03-19T03:28:06;99741.84;;;11.71;57.61
12963;BME280;6546;49.882;8.666;2023-03-19T03:30:33;99756.06;;;11.75;57.83
12963;BME280;6546;49.882;8.666;2023-03-19T03:33:00;99752.16;;;11.79;57.35
12963;BME280;6546;49.882;8.666;2023-03-19T03:35:28;99752.59;;;11.82;57.12
12963;BME280;6546;49.882;8.666;2023-03-19T03:37:55;99750.09;;;11.89;56.38
12963;BME280;6546;49.882;8.666;2023-03-19T03:40:22;99758.50;;;11.91;56.81
12963;BME280;6546;49.882;8.666;2023-03-19T03:42:49;99747.50;;;11.89;56.64
12963;BME280;6546;49.882;8.666;2023-03-19T03:45:15;99761.34;;;11.96;56.40
12963;BME280;6546;49.882;8.666;2023-03-19T03:47:42;99761.19;;;11.97;56.64
12963;BME280;6546;49.882;8.666;2023-03-19T03:50:09;99753.03;;;12.00;56.53
12963;BME280;6546;49.882;8.666;2023-03-19T03:52:38;99753.50;;;12.04;56.58
12963;BME280;6546;49.882;8.666;2023-03-19T03:55:06;99757.34;;;12.08;56.64
12963;BME280;6546;49.882;8.666;2023-03-19T03:57:33;99761.53;;;12.09;56.43
12963;BME280;6546;49.882;8.666;2023-03-19T04:00:00;99765.75;;;12.10;56.44
12963;BME280;6546;49.882;8.666;2023-03-19T04:02:26;99759.38;;;12.13;56.50
12963;BME280;6546;49.882;8.666;2023-03-19T04:04:53;99758.88;;;12.17;56.10
12963;BME280;6546;49.882;8.666;2023-03-19T04:07:20;99765.47;;;12.20;56.02
12963;BME280;6546;49.882;8.666;2023-03-19T04:09:49;99765.31;;;12.21;56.40
12963;BME280;6546;49.882;8.666;2023-03-19T04:12:15;99766.91;;;12.22;56.38
12963;BME280;6546;49.882;8.666;2023-03-19T04:14:42;99757.34;;;12.23;56.32
12963;BME280;6546;49.882;8.666;2023-03-19T04:17:09;99756.97;;;12.26;56.02
12963;BME280;6546;49.882;8.666;2023-03-19T04:19:35;99766.38;;;12.27;56.00
12963;BME280;6546;49.882;8.666;2023-03-19T04:22:02;99774.63;;;12.30;55.86
12963;BME280;6546;49.882;8.666;2023-03-19T04:24:29;99773.97;;;12.28;56.24
12963;BME280;6546;49.882;8.666;2023-03-19T04:26:58;99780.97;;;12.28;56.28
12963;BME280;6546;49.882;8.666;2023-03-19T04:29:25;99779.97;;;12.29;55.83
12963;BME280;6546;49.882;8.666;2023-03-19T04:31:51;99781.75;;;12.28;56.15
12963;BME280;6546;49.882;8.666;2023-03-19T04:34:18;99782.56;;;12.29;56.23
12963;BME280;6546;49.882;8.666;2023-03-19T04:36:45;99780.16;;;12.27;56.38
12963;BME280;6546;49.882;8.666;2023-03-19T04:39:12;99778.38;;;12.28;55.95
12963;BME280;6546;49.882;8.666;2023-03-19T04:41:38;99780.16;;;12.27;56.01
12963;BME280;6546;49.882;8.666;2023-03-19T04:44:06;99788.94;;;12.26;56.16
12963;BME280;6546;49.882;8.666;2023-03-19T04:46:33;99794.13;;;12.26;56.04
12963;BME280;6546;49.882;8.666;2023-03-19T04:49:00;99794.13;;;12.26;56.31
12963;BME280;6546;49.882;8.666;2023-03-19T04:51:27;99797.69;;;12.25;56.36
12963;BME280;6546;49.882;8.666;2023-03-19T04:53:53;99796.09;;;12.24;56.29
12963;BME280;6546;49.882;8.666;2023-03-19T04:56:20;99798.06;;;12.22;56.44
12963;BME280;6546;49.882;8.666;2023-03-19T04:58:46;99806.03;;;12.21;56.36
12963;BME280;6546;49.882;8.666;2023-03-19T05:01:14;99793.88;;;12.21;56.04
12963;BME280;6546;49.882;8.666;2023-03-19T05:03:41;99794.66;;;12.22;56.09
12963;BME280;6546;49.882;8.666;2023-03-19T05:06:07;99788.03;;;12.19;55.96
12963;BME280;6546;49.882;8.666;2023-03-19T05:08:34;99788.22;;;12.18;56.38
12963;BME280;6546;49.882;8.666;2023-03-19T05:11:01;99796.78;;;12.18;56.29
12963;BME280;6546;49.882;8.666;2023-03-19T05:13:28;99802.63;;;12.20;55.96
12963;BME280;6546;49.882;8.666;2023-03-19T05:15:55;99798.78;;;12.16;56.63
12963;BME280;6546;49.882;8.666;2023-03-19T05:18:23;99814.78;;;12.20;56.06
12963;BME280;6546;49.882;8.666;2023-03-19T05:20:50;99805.38;;;12.19;56.44
12963;BME280;6546;49.882;8.666;2023-03-19T05:23:17;99814.00;;;12.19;56.71
12963;BME280;6546;49.882;8.666;2023-03-19T05:25:44;99820.00;;;12.20;57.33
12963;BME280;6546;49.882;8.666;2023-03-19T05:28:10;99819.91;;;12.13;57.42
12963;BME280;6546;49.882;8.666;2023-03-19T05:30:38;99814.34;;;12.16;57.52
12963;BME280;6546;49.882;8.666;2023-03-19T05:33:05;99812.09;;;12.13;57.46
12963;BME280;6546;49.882;8.666;2023-03-19T05:35:33;99815.97;;;12.17;57.12
12963;BME280;6546;49.882;8.666;2023-03-19T05:38:00;99816.69;;;12.11;57.21
12963;BME280;6546;49.882;8.666;2023-03-19T05:40:26;99818.28;;;12.12;57.13
12963;BME280;6546;49.882;8.666;2023-03-19T05:42:53;99809.72;;;12.12;57.06
12963;BME280;6546;49.882;8.666;2023-03-19T05:45:20;99826.25;;;12.10;57.71
12963;BME280;6546;49.882;8.666;2023-03-19T05:47:47;99823.81;;;12.09;57.50
12963;BME280;6546;49.882;8.666;2023-03-19T05:50:14;99832.59;;;12.08;57.55
12963;BME280;6546;49.882;8.666;2023-03-19T05:52:42;99835.38;;;12.06;57.66
12963;BME280;6546;49.882;8.666;2023-03-19T05:55:09;99842.34;;;12.06;57.75
12963;BME280;6546;49.882;8.666;2023-03-19T05:57:36;99839.75;;;12.06;57.79
12963;BME280;6546;49.882;8.666;2023-03-19T06:00:04;99844.31;;;12.04;57.94
12963;BME280;6546;49.882;8.666;2023-03-19T06:02:31;99849.50;;;12.04;57.96
12963;BME280;6546;49.882;8.666;2023-03-19T06:04:58;99854.84;;;12.02;58.33
12963;BME280;6546;49.882;8.666;2023-03-19T06:07:24;99853.72;;;12.05;58.38
12963;BME280;6546;49.882;8.666;2023-03-19T06:09:52;99862.47;;;12.04;58.07
12963;BME280;6546;49.882;8.666;2023-03-19T06:12:19;99868.84;;;12.01;58.43
12963;BME280;6546;49.882;8.666;2023-03-19T06:14:46;99875.00;;;12.00;58.65
12963;BME280;6546;49.882;8.666;2023-03-19T06:17:12;99873.84;;;12.03;58.84
12963;BME280;6546;49.882;8.666;2023-03-19T06:19:39;99878.06;;;12.04;58.53
12963;BME280;6546;49.882;8.666;2023-03-19T06:22:06;99877.25;;;12.03;58.59
12963;BME280;6546;49.882;8.666;2023-03-19T06:24:33;99875.47;;;12.04;59.06
12963;BME280;6546;49.882;8.666;2023-03-19T06:27:01;99871.69;;;12.06;58.76
12963;BME280;6546;49.882;8.666;2023-03-19T06:29:29;99869.03;;;12.15;58.38
12963;BME280;6546;49.882;8.666;2023-03-19T06:31:56;99864.63;;;12.15;58.38
12963;BME280;6546;49.882;8.666;2023-03-19T06:34:22;99873.41;;;12.14;58.74
12963;BME280;6546;49.882;8.666;2023-03-19T06:36:49;99872.78;;;12.12;58.90
12963;BME280;6546;49.882;8.666;2023-03-19T06:39:18;99874.84;;;12.17;58.64
12963;BME280;6546;49.882;8.666;2023-03-19T06:41:44;99880.31;;;12.22;58.10
12963;BME280;6546;49.882;8.666;2023-03-19T06:44:12;99873.63;;;12.27;57.86
12963;BME280;6546;49.882;8.666;2023-03-19T06:46:39;99879.69;;;12.34;57.28
12963;BME280;6546;49.882;8.666;2023-03-19T06:49:05;99876.94;;;12.36;57.28
12963;BME280;6546;49.882;8.666;2023-03-19T06:51:33;99873.72;;;12.34;57.41
12963;BME280;6546;49.882;8.666;2023-03-19T06:53:59;99878.91;;;12.34;57.17
12963;BME280;6546;49.882;8.666;2023-03-19T06:56:26;99883.91;;;12.35;57.48
12963;BME280;6546;49.882;8.666;2023-03-19T06:58:53;99886.16;;;12.38;57.25
12963;BME280;6546;49.882;8.666;2023-03-19T07:01:22;99890.16;;;12.41;57.23
12963;BME280;6546;49.882;8.666;2023-03-19T07:03:48;99890.25;;;12.47;57.16
12963;BME280;6546;49.882;8.666;2023-03-19T07:06:15;99890.56;;;12.52;56.57
12963;BME280;6546;49.882;8.666;2023-03-19T07:08:41;99893.16;;;12.52;57.38
12963;BME280;6546;49.882;8.666;2023-03-19T07:11:11;99893.97;;;12.53;56.50
12963;BME280;6546;49.882;8.666;2023-03-19T07:13:38;99888.56;;;12.54;56.91
12963;BME280;6546;49.882;8.666;2023-03-19T07:16:05;99885.97;;;12.54;56.76
12963;BME280;6546;49.882;8.666;2023-03-19T07:18:34;99893.50;;;12.64;57.05
12963;BME280;6546;49.882;8.666;2023-03-19T07:21:00;99897.81;;;12.72;56.43
12963;BME280;6546;49.882;8.666;2023-03-19T07:23:27;99899.69;;;12.78;56.34
12963;BME280;6546;49.882;8.666;2023-03-19T07:25:53;99900.59;;;12.85;56.00
12963;BME280;6546;49.882;8.666;2023-03-19T07:28:20;99897.25;;;12.91;55.45
12963;BME280;6546;49.882;8.666;2023-03-19T07:30:47;99908.78;;;13.03;55.50
12963;BME280;6546;49.882;8.666;2023-03-19T07:33:13;99908.38;;;13.14;56.45
12963;BME280;6546;49.882;8.666;2023-03-19T07:35:42;99900.72;;;13.27;55.57
12963;BME280;6546;49.882;8.666;2023-03-19T07:38:09;99896.28;;;13.42;55.21
12963;BME280;6546;49.882;8.666;2023-03-19T07:40:36;99888.72;;;13.47;54.92
12963;BME280;6546;49.882;8.666;2023-03-19T07:43:02;99895.13;;;13.66;54.71
12963;BME280;6546;49.882;8.666;2023-03-19T07:45:29;99896.16;;;13.72;53.81
12963;BME280;6546;49.882;8.666;2023-03-19T07:47:56;99907.06;;;13.82;54.00
12963;BME280;6546;49.882;8.666;2023-03-19T07:50:22;99904.47;;;13.82;54.12
12963;BME280;6546;49.882;8.666;2023-03-19T07:52:50;99903.13;;;13.86;53.75
12963;BME280;6546;49.882;8.666;2023-03-19T07:55:17;99917.72;;;13.87;53.99
12963;BME280;6546;49.882;8.666;2023-03-19T07:57:43;99911.91;;;13.85;53.67
12963;BME280;6546;49.882;8.666;2023-03-19T08:00:10;99911.91;;;13.85;54.37
12963;BME280;6546;49.882;8.666;2023-03-19T08:02:37;99915.47;;;13.84;54.25
12963;BME280;6546;49.882;8.666;2023-03-19T08:05:04;99915.47;;;13.84;54.15
12963;BME280;6546;49.882;8.666;2023-03-19T08:07:31;99915.47;;;13.84;54.48
12963;BME280;6546;49.882;8.666;2023-03-19T08:09:59;99923.50;;;13.82;54.45
12963;BME280;6546;49.882;8.666;2023-03-19T08:12:26;99921.25;;;13.79;54.47
12963;BME280;6546;49.882;8.666;2023-03-19T08:14:52;99927.09;;;13.81;54.40
12963;BME280;6546;49.882;8.666;2023-03-19T08:17:19;99927.09;;;13.81;54.28
12963;BME280;6546;49.882;8.666;2023-03-19T08:19:46;99922.69;;;13.82;54.80
12963;BME280;6546;49.882;8.666;2023-03-19T08:22:12;99929.69;;;13.81;55.17
12963;BME280;6546;49.882;8.666;2023-03-19T08:24:39;99924.66;;;13.80;54.30
12963;BME280;6546;49.882;8.666;2023-03-19T08:27:07;99929.84;;;13.80;54.59
12963;BME280;6546;49.882;8.666;2023-03-19T08:29:34;99933.47;;;13.79;54.75
12963;BME280;6546;49.882;8.666;2023-03-19T08:32:00;99933.84;;;13.76;54.86
12963;BME280;6546;49.882;8.666;2023-03-19T08:34:27;99928.25;;;13.79;54.96
12963;BME280;6546;49.882;8.666;2023-03-19T08:36:54;99936.31;;;13.84;54.77
12963;BME280;6546;49.882;8.666;2023-03-19T08:39:20;99938.31;;;13.82;54.95
12963;BME280;6546;49.882;8.666;2023-03-19T08:41:48;99932.06;;;13.76;55.27
12963;BME280;6546;49.882;8.666;2023-03-19T08:44:16;99939.53;;;13.86;54.88
12963;BME280;6546;49.882;8.666;2023-03-19T08:46:42;99940.97;;;13.88;54.65
12963;BME280;6546;49.882;8.666;2023-03-19T08:49:09;99937.94;;;13.85;55.36
12963;BME280;6546;49.882;8.666;2023-03-19T08:51:35;99935.75;;;13.88;54.86
12963;BME280;6546;49.882;8.666;2023-03-19T08:54:02;99938.16;;;13.90;55.13
12963;BME280;6546;49.882;8.666;2023-03-19T08:56:28;99939.59;;;13.92;54.62
12963;BME280;6546;49.882;8.666;2023-03-19T08:58:56;99938.09;;;14.04;54.94
12963;BME280;6546;49.882;8.666;2023-03-19T09:01:24;99934.19;;;14.15;54.90
12963;BME280;6546;49.882;8.666;2023-03-19T09:03:50;99936.28;;;14.26;54.32
12963;BME280;6546;49.882;8.666;2023-03-19T09:06:17;99931.06;;;14.26;53.42
12963;BME280;6546;49.882;8.666;2023-03-19T09:08:43;99934.28;;;14.28;53.60
12963;BME280;6546;49.882;8.666;2023-03-19T09:11:10;99932.31;;;14.30;52.71
12963;BME280;6546;49.882;8.666;2023-03-19T09:13:38;99927.97;;;14.37;53.65
12963;BME280;6546;49.882;8.666;2023-03-19T09:16:05;99937.25;;;14.46;53.19
12963;BME280;6546;49.882;8.666;2023-03-19T09:18:33;99938.34;;;14.58;52.81
12963;BME280;6546;49.882;8.666;2023-03-19T09:21:00;99943.41;;;14.66;52.75
12963;BME280;6546;49.882;8.666;2023-03-19T09:23:27;99939.38;;;14.64;52.51
12963;BME280;6546;49.882;8.666;2023-03-19T09:25:54;99935.34;;;14.61;52.95
12963;BME280;6546;49.882;8.666;2023-03-19T09:28:21;99933.34;;;14.57;53.13
12963;BME280;6546;49.882;8.666;2023-03-19T09:30:49;99933.50;;;14.55;52.56
12963;BME280;6546;49.882;8.666;2023-03-19T09:33:17;99940.13;;;14.58;52.87
12963;BME280;6546;49.882;8.666;2023-03-19T09:35:50;99931.38;;;14.65;52.91
12963;BME280;6546;49.882;8.666;2023-03-19T09:38:17;99935.00;;;14.71;53.29
12963;BME280;6546;49.882;8.666;2023-03-19T09:40:46;99941.59;;;14.67;52.46
12963;BME280;6546;49.882;8.666;2023-03-19T09:43:39;99950.59;;;14.64;52.49
12963;BME280;6546;49.882;8.666;2023-03-19T09:46:12;99952.59;;;14.62;52.98
12963;BME280;6546;49.882;8.666;2023-03-19T09:48:46;99949.78;;;14.64;53.36
12963;BME280;6546;49.882;8.666;2023-03-19T09:51:22;99941.41;;;14.68;52.62
12963;BME280;6546;49.882;8.666;2023-03-19T09:53:55;99946.22;;;14.71;52.70
12963;BME280;6546;49.882;8.666;2023-03-19T09:56:23;99942.66;;;14.73;52.86
12963;BME280;6546;49.882;8.666;2023-03-19T09:58:51;99943.25;;;14.75;51.92
12963;BME280;6546;49.882;8.666;2023-03-19T10:01:23;99947.25;;;14.77;51.28
12963;BME280;6546;49.882;8.666;2023-03-19T10:04:03;99949.91;;;14.84;51.67
12963;BME280;6546;49.882;8.666;2023-03-19T10:06:37;99955.38;;;14.89;51.92
12963;BME280;6546;49.882;8.666;2023-03-19T10:09:27;99943.53;;;14.86;50.56
12963;BME280;6546;49.882;8.666;2023-03-19T10:12:15;99953.16;;;14.86;50.26
12963;BME280;6546;49.882;8.666;2023-03-19T10:14:54;99951.53;;;14.85;51.22
12963;BME280;6546;49.882;8.666;2023-03-19T10:17:29;99957.72;;;14.84;50.81
12963;BME280;6546;49.882;8.666;2023-03-19T10:19:59;99957.72;;;14.84;50.97
12963;BME280;6546;49.882;8.666;2023-03-19T10:22:31;99956.75;;;14.85;50.20
12963;BME280;6546;49.882;8.666;2023-03-19T10:25:01;99961.56;;;14.88;50.52
12963;BME280;6546;49.882;8.666;2023-03-19T10:27:28;99960.03;;;15.00;50.78
12963;BME280;6546;49.882;8.666;2023-03-19T10:29:55;99942.84;;;15.12;51.15
12963;BME280;6546;49.882;8.666;2023-03-19T10:32:28;99950.34;;;15.28;49.84
12963;BME280;6546;49.882;8.666;2023-03-19T10:35:03;99940.72;;;15.42;50.06
12963;BME280;6546;49.882;8.666;2023-03-19T10:37:33;99944.00;;;15.50;50.40
12963;BME280;6546;49.882;8.666;2023-03-19T10:40:01;99944.84;;;15.64;50.12
12963;BME280;6546;49.882;8.666;2023-03-19T10:42:45;99945.47;;;15.79;49.88
12963;BME280;6546;49.882;8.666;2023-03-19T10:45:22;99938.84;;;15.90;49.49
12963;BME280;6546;49.882;8.666;2023-03-19T10:47:50;99946.09;;;16.01;49.81
12963;BME280;6546;49.882;8.666;2023-03-19T10:50:19;99946.69;;;16.03;49.52
12963;BME280;6546;49.882;8.666;2023-03-19T10:52:51;99941.06;;;16.06;49.25
12963;BME280;6546;49.882;8.666;2023-03-19T10:55:24;99939.47;;;16.05;47.51
12963;BME280;6546;49.882;8.666;2023-03-19T10:57:56;99945.69;;;16.04;48.61
12963;BME280;6546;49.882;8.666;2023-03-19T11:00:28;99951.75;;;16.11;48.49
12963;BME280;6546;49.882;8.666;2023-03-19T11:02:57;99940.47;;;16.17;46.46
12963;BME280;6546;49.882;8.666;2023-03-19T11:05:27;99941.69;;;16.21;46.29
12963;BME280;6546;49.882;8.666;2023-03-19T11:07:59;99939.28;;;16.19;47.03
12963;BME280;6546;49.882;8.666;2023-03-19T11:10:29;99934.25;;;16.11;47.37
12963;BME280;6546;49.882;8.666;2023-03-19T11:12:57;99943.69;;;16.12;47.36
12963;BME280;6546;49.882;8.666;2023-03-19T11:15:27;99948.72;;;16.14;47.66
12963;BME280;6546;49.882;8.666;2023-03-19T11:17:56;99945.53;;;16.18;48.35
12963;BME280;6546;49.882;8.666;2023-03-19T11:20:28;99944.31;;;16.27;47.64
12963;BME280;6546;49.882;8.666;2023-03-19T11:22:57;99944.91;;;16.36;47.17
12963;BME280;6546;49.882;8.666;2023-03-19T11:25:28;99946.50;;;16.37;46.50
12963;BME280;6546;49.882;8.666;2023-03-19T11:28:00;99945.09;;;16.41;45.76
12963;BME280;6546;49.882;8.666;2023-03-19T11:30:35;99945.69;;;16.50;46.78
12963;BME280;6546;49.882;8.666;2023-03-19T11:33:29;99936.25;;;16.49;46.41
12963;BME280;6546;49.882;8.666;2023-03-19T11:36:06;99936.25;;;16.42;44.75
12963;BME280;6546;49.882;8.666;2023-03-19T11:38:39;99941.06;;;16.39;46.25
12963;BME280;6546;49.882;8.666;2023-03-19T11:41:15;99937.66;;;16.38;46.59
12963;BME280;6546;49.882;8.666;2023-03-19T11:43:51;99929.44;;;16.35;46.23
12963;BME280;6546;49.882;8.666;2023-03-19T11:46:37;99933.22;;;16.39;45.36
12963;BME280;6546;49.882;8.666;2023-03-19T11:49:36;99927.41;;;16.43;46.57
12963;BME280;6546;49.882;8.666;2023-03-19T11:52:13;99914.91;;;16.52;44.76
12963;BME280;6546;49.882;8.666;2023-03-19T11:54:49;99916.75;;;16.58;44.68
12963;BME280;6546;49.882;8.666;2023-03-19T11:57:30;99912.94;;;16.47;44.72
12963;BME280;6546;49.882;8.666;2023-03-19T12:00:10;99921.78;;;16.46;45.72
12963;BME280;6546;49.882;8.666;2023-03-19T12:03:04;99915.34;;;16.42;46.02
12963;BME280;6546;49.882;8.666;2023-03-19T12:05:47;99909.31;;;16.42;44.31
12963;BME280;6546;49.882;8.666;2023-03-19T12:08:23;99910.09;;;16.42;45.73
12963;BME280;6546;49.882;8.666;2023-03-19T12:11:06;99909.53;;;16.40;45.54
12963;BME280;6546;49.882;8.666;2023-03-19T12:13:54;99911.72;;;16.37;44.55
12963;BME280;6546;49.882;8.666;2023-03-19T12:16:28;99916.56;;;16.33;45.27
12963;BME280;6546;49.882;8.666;2023-03-19T12:19:13;99915.34;;;16.36;43.97
12963;BME280;6546;49.882;8.666;2023-03-19T12:21:56;99907.09;;;16.39;44.39
12963;BME280;6546;49.882;8.666;2023-03-19T12:24:38;99916.38;;;16.41;44.80
12963;BME280;6546;49.882;8.666;2023-03-19T12:27:21;99911.13;;;16.41;45.44
12963;BME280;6546;49.882;8.666;2023-03-19T12:29:58;99910.31;;;16.41;44.60
12963;BME280;6546;49.882;8.666;2023-03-19T12:32:36;99911.50;;;16.38;45.20
12963;BME280;6546;49.882;8.666;2023-03-19T12:35:09;99918.75;;;16.43;45.32
12963;BME280;6546;49.882;8.666;2023-03-19T12:37:41;99922.34;;;16.48;46.16
12963;BME280;6546;49.882;8.666;2023-03-19T12:40:21;99908.28;;;16.49;45.63
12963;BME280;6546;49.882;8.666;2023-03-19T12:42:55;99907.72;;;16.47;46.25
12963;BME280;6546;49.882;8.666;2023-03-19T12:45:27;99913.75;;;16.48;46.53
12963;BME280;6546;49.882;8.666;2023-03-19T12:47:58;99906.91;;;16.47;46.17
12963;BME280;6546;49.882;8.666;2023-03-19T12:50:28;99912.72;;;16.42;46.67
12963;BME280;6546;49.882;8.666;2023-03-19T12:52:59;99918.56;;;16.38;46.61
12963;BME280;6546;49.882;8.666;2023-03-19T12:55:33;99920.16;;;16.32;47.24
12963;BME280;6546;49.882;8.666;2023-03-19T12:58:11;99914.94;;;16.32;47.30
12963;BME280;6546;49.882;8.666;2023-03-19T13:00:45;99917.78;;;16.31;47.12
12963;BME280;6546;49.882;8.666;2023-03-19T13:03:16;99911.34;;;16.33;46.01
12963;BME280;6546;49.882;8.666;2023-03-19T13:05:46;99916.78;;;16.32;46.97
12963;BME280;6546;49.882;8.666;2023-03-19T13:08:22;99926.41;;;16.31;47.88
12963;BME280;6546;49.882;8.666;2023-03-19T13:10:52;99934.84;;;16.26;48.50
12963;BME280;6546;49.882;8.666;2023-03-19T13:13:30;99932.66;;;16.23;50.17
12963;BME280;6546;49.882;8.666;2023-03-19T13:16:03;99938.69;;;16.11;51.56
12963;BME280;6546;49.882;8.666;2023-03-19T13:18:37;99937.06;;;16.10;52.57
12963;BME280;6546;49.882;8.666;2023-03-19T13:21:16;99935.84;;;16.06;52.74